sensor_id;sensor_type;location;lat;lon;timestamp;P1;durP1;ratioP1;P2;durP2;ratioP2
20122;SDS011;10222;50.848;4.336;2023-07-16T00:00:12;3.70;;;1.00;;
20122;SDS011;10222;50.848;4.336;2023-07-16T00:02:38;10.70;;;1.63;;
20122;SDS011;10222;50.848;4.336;2023-07-16T00:05:04;7.87;;;1.30;;
20122;SDS011;10222;50.848;4.336;2023-07-16T00:07:31;5.13;;;1.23;;
20122;SDS011;10222;50.848;4.336;2023-07-16T00:09:57;3.83;;;1.30;;
20122;SDS011;10222;50.848;4.336;2023-07-16T00:12:23;3.83;;;1.03;;
20122;SDS011;10222;50.848;4.336;2023-07-16T00:14:49;2.07;;;1.00;;
20122;SDS011;10222;50.848;4.336;2023-07-16T00:17:15;3.77;;;1.30;;
20122;SDS011;10222;50.848;4.336;2023-07-16T00:19:41;3.73;;;1.20;;
20122;SDS011;10222;50.848;4.336;2023-07-16T00:22:07;2.53;;;1.07;;
20122;SDS011;10222;50.848;4.336;2023-07-16T00:24:33;4.57;;;1.37;;
20122;SDS011;10222;50.848;4.336;2023-07-16T00:26:59;5.47;;;1.20;;
20122;SDS011;10222;50.848;4.336;2023-07-16T00:29:25;1.80;;;0.93;;
20122;SDS011;10222;50.848;4.336;2023-07-16T00:31:51;3.17;;;1.37;;
20122;SDS011;10222;50.848;4.336;2023-07-16T00:34:17;5.17;;;1.20;;
20122;SDS011;10222;50.848;4.336;2023-07-16T00:36:43;2.97;;;1.30;;
20122;SDS011;10222;50.848;4.336;2023-07-16T00:39:09;6.23;;;1.10;;
20122;SDS011;10222;50.848;4.336;2023-07-16T00:41:35;3.13;;;1.40;;
20122;SDS011;10222;50.848;4.336;2023-07-16T00:44:01;4.43;;;1.27;;
20122;SDS011;10222;50.848;4.336;2023-07-16T00:46:27;7.20;;;1.13;;
20122;SDS011;10222;50.848;4.336;2023-07-16T00:48:54;3.53;;;1.00;;
20122;SDS011;10222;50.848;4.336;2023-07-16T00:51:20;11.27;;;1.83;;
20122;SDS011;10222;50.848;4.336;2023-07-16T00:53:47;6.20;;;1.33;;
20122;SDS011;10222;50.848;4.336;2023-07-16T00:56:15;4.63;;;1.10;;
20122;SDS011;10222;50.848;4.336;2023-07-16T00:58:42;6.27;;;1.47;;
20122;SDS011;10222;50.848;4.336;2023-07-16T01:01:08;4.30;;;1.27;;
20122;SDS011;10222;50.848;4.336;2023-07-16T01:03:34;4.30;;;1.20;;
20122;SDS011;10222;50.848;4.336;2023-07-16T01:08:46;5.17;;;1.60;;
20122;SDS011;10222;50.848;4.336;2023-07-16T01:11:13;4.33;;;1.37;;
20122;SDS011;10222;50.848;4.336;2023-07-16T01:13:39;3.80;;;1.17;;
20122;SDS011;10222;50.848;4.336;2023-07-16T01:16:06;3.30;;;1.30;;
20122;SDS011;10222;50.848;4.336;2023-07-16T01:18:32;7.30;;;1.20;;
20122;SDS011;10222;50.848;4.336;2023-07-16T01:20:58;4.77;;;1.27;;
20122;SDS011;10222;50.848;4.336;2023-07-16T01:28:41;3.77;;;1.57;;
20122;SDS011;10222;50.848;4.336;2023-07-16T01:31:10;5.03;;;1.80;;
20122;SDS011;10222;50.848;4.336;2023-07-16T01:33:37;8.33;;;1.93;;
20122;SDS011;10222;50.848;4.336;2023-07-16T01:36:04;4.83;;;1.27;;
20122;SDS011;10222;50.848;4.336;2023-07-16T01:38:30;3.03;;;1.93;;
20122;SDS011;10222;50.848;4.336;2023-07-16T01:40:56;5.13;;;1.90;;
20122;SDS011;10222;50.848;4.336;2023-07-16T01:43:22;5.33;;;1.60;;
20122;SDS011;10222;50.848;4.336;2023-07-16T01:45:48;1.63;;;1.37;;
20122;SDS011;10222;50.848;4.336;2023-07-16T01:48:21;5.03;;;1.80;;
20122;SDS011;10222;50.848;4.336;2023-07-16T01:50:50;3.13;;;1.90;;
20122;SDS011;10222;50.848;4.336;2023-07-16T01:53:16;8.43;;;1.57;;
20122;SDS011;10222;50.848;4.336;2023-07-16T01:55:42;4.30;;;1.90;;
20122;SDS011;10222;50.848;4.336;2023-07-16T01:58:08;3.33;;;1.57;;
20122;SDS011;10222;50.848;4.336;2023-07-16T02:00:34;5.23;;;1.87;;
20122;SDS011;10222;50.848;4.336;2023-07-16T02:03:00;3.40;;;1.47;;
20122;SDS011;10222;50.848;4.336;2023-07-16T02:05:26;2.93;;;1.73;;
20122;SDS011;10222;50.848;4.336;2023-07-16T02:07:52;5.53;;;1.53;;
20122;SDS011;10222;50.848;4.336;2023-07-16T02:10:18;8.63;;;1.83;;
20122;SDS011;10222;50.848;4.336;2023-07-16T02:12:44;3.50;;;1.70;;
20122;SDS011;10222;50.848;4.336;2023-07-16T02:15:10;9.93;;;1.60;;
20122;SDS011;10222;50.848;4.336;2023-07-16T02:17:36;6.73;;;2.17;;
20122;SDS011;10222;50.848;4.336;2023-07-16T02:20:02;7.83;;;1.67;;
20122;SDS011;10222;50.848;4.336;2023-07-16T02:22:30;5.37;;;1.77;;
20122;SDS011;10222;50.848;4.336;2023-07-16T02:24:56;6.03;;;1.67;;
20122;SDS011;10222;50.848;4.336;2023-07-16T02:27:22;3.40;;;1.60;;
20122;SDS011;10222;50.848;4.336;2023-07-16T02:29:48;6.33;;;1.60;;
20122;SDS011;10222;50.848;4.336;2023-07-16T02:32:14;4.50;;;2.07;;
20122;SDS011;10222;50.848;4.336;2023-07-16T02:34:40;5.90;;;2.10;;
20122;SDS011;10222;50.848;4.336;2023-07-16T02:37:06;4.70;;;2.03;;
20122;SDS011;10222;50.848;4.336;2023-07-16T02:39:33;3.80;;;1.73;;
20122;SDS011;10222;50.848;4.336;2023-07-16T02:42:00;7.37;;;2.50;;
20122;SDS011;10222;50.848;4.336;2023-07-16T02:44:26;5.13;;;2.13;;
20122;SDS011;10222;50.848;4.336;2023-07-16T02:46:52;8.47;;;2.40;;
20122;SDS011;10222;50.848;4.336;2023-07-16T02:49:18;5.90;;;2.67;;
20122;SDS011;10222;50.848;4.336;2023-07-16T02:51:44;9.13;;;2.20;;
20122;SDS011;10222;50.848;4.336;2023-07-16T02:54:10;6.97;;;2.87;;
20122;SDS011;10222;50.848;4.336;2023-07-16T02:56:36;6.27;;;2.73;;
20122;SDS011;10222;50.848;4.336;2023-07-16T02:59:02;7.20;;;2.40;;
20122;SDS011;10222;50.848;4.336;2023-07-16T03:01:28;6.67;;;3.10;;
20122;SDS011;10222;50.848;4.336;2023-07-16T03:03:54;7.63;;;3.00;;
20122;SDS011;10222;50.848;4.336;2023-07-16T03:06:20;7.43;;;2.40;;
20122;SDS011;10222;50.848;4.336;2023-07-16T03:08:46;9.50;;;2.73;;
20122;SDS011;10222;50.848;4.336;2023-07-16T03:11:12;4.87;;;2.50;;
20122;SDS011;10222;50.848;4.336;2023-07-16T03:13:38;4.10;;;2.10;;
20122;SDS011;10222;50.848;4.336;2023-07-16T03:16:04;7.23;;;2.50;;
20122;SDS011;10222;50.848;4.336;2023-07-16T03:18:30;7.37;;;2.60;;
20122;SDS011;10222;50.848;4.336;2023-07-16T03:20:56;8.87;;;2.53;;
20122;SDS011;10222;50.848;4.336;2023-07-16T03:23:22;6.83;;;1.90;;
20122;SDS011;10222;50.848;4.336;2023-07-16T03:25:51;11.53;;;2.30;;
20122;SDS011;10222;50.848;4.336;2023-07-16T03:28:17;5.47;;;2.23;;
20122;SDS011;10222;50.848;4.336;2023-07-16T03:30:47;4.57;;;2.20;;
20122;SDS011;10222;50.848;4.336;2023-07-16T03:33:13;7.37;;;2.47;;
20122;SDS011;10222;50.848;4.336;2023-07-16T03:35:41;4.93;;;2.47;;
20122;SDS011;10222;50.848;4.336;2023-07-16T03:38:07;7.13;;;2.73;;
20122;SDS011;10222;50.848;4.336;2023-07-16T03:40:33;3.37;;;1.83;;
20122;SDS011;10222;50.848;4.336;2023-07-16T03:42:59;4.27;;;2.43;;
20122;SDS011;10222;50.848;4.336;2023-07-16T03:45:25;5.60;;;2.30;;
20122;SDS011;10222;50.848;4.336;2023-07-16T03:47:51;4.47;;;2.57;;
20122;SDS011;10222;50.848;4.336;2023-07-16T03:50:18;8.43;;;2.90;;
20122;SDS011;10222;50.848;4.336;2023-07-16T03:52:44;11.77;;;2.83;;
20122;SDS011;10222;50.848;4.336;2023-07-16T03:55:10;9.43;;;2.50;;
20122;SDS011;10222;50.848;4.336;2023-07-16T03:57:36;5.50;;;2.20;;
20122;SDS011;10222;50.848;4.336;2023-07-16T04:00:03;5.90;;;2.50;;
20122;SDS011;10222;50.848;4.336;2023-07-16T04:02:31;8.30;;;2.17;;
20122;SDS011;10222;50.848;4.336;2023-07-16T04:04:57;4.90;;;2.43;;
20122;SDS011;10222;50.848;4.336;2023-07-16T04:07:23;9.60;;;2.57;;
20122;SDS011;10222;50.848;4.336;2023-07-16T04:09:49;8.43;;;3.17;;
20122;SDS011;10222;50.848;4.336;2023-07-16T04:12:15;9.23;;;3.07;;
20122;SDS011;10222;50.848;4.336;2023-07-16T04:14:41;7.10;;;2.73;;
20122;SDS011;10222;50.848;4.336;2023-07-16T04:17:07;4.37;;;2.17;;
20122;SDS011;10222;50.848;4.336;2023-07-16T04:19:33;5.80;;;2.53;;
20122;SDS011;10222;50.848;4.336;2023-07-16T04:21:59;16.20;;;3.57;;
20122;SDS011;10222;50.848;4.336;2023-07-16T04:24:25;5.33;;;2.87;;
20122;SDS011;10222;50.848;4.336;2023-07-16T04:26:52;4.53;;;2.47;;
20122;SDS011;10222;50.848;4.336;2023-07-16T04:29:18;4.80;;;2.27;;
20122;SDS011;10222;50.848;4.336;2023-07-16T04:31:44;5.07;;;2.40;;
20122;SDS011;10222;50.848;4.336;2023-07-16T04:34:10;7.40;;;3.13;;
20122;SDS011;10222;50.848;4.336;2023-07-16T04:36:36;6.50;;;3.00;;
20122;SDS011;10222;50.848;4.336;2023-07-16T04:39:02;6.90;;;2.83;;
20122;SDS011;10222;50.848;4.336;2023-07-16T04:41:28;4.83;;;2.37;;
20122;SDS011;10222;50.848;4.336;2023-07-16T04:43:54;6.30;;;2.37;;
20122;SDS011;10222;50.848;4.336;2023-07-16T04:46:20;5.97;;;2.83;;
20122;SDS011;10222;50.848;4.336;2023-07-16T04:48:46;8.23;;;2.87;;
20122;SDS011;10222;50.848;4.336;2023-07-16T04:51:12;6.03;;;2.70;;
20122;SDS011;10222;50.848;4.336;2023-07-16T04:53:38;7.37;;;3.17;;
20122;SDS011;10222;50.848;4.336;2023-07-16T04:56:04;8.33;;;3.40;;
20122;SDS011;10222;50.848;4.336;2023-07-16T04:58:35;7.23;;;2.80;;
20122;SDS011;10222;50.848;4.336;2023-07-16T05:01:01;4.47;;;2.37;;
20122;SDS011;10222;50.848;4.336;2023-07-16T05:03:27;6.73;;;3.30;;
20122;SDS011;10222;50.848;4.336;2023-07-16T05:05:53;5.53;;;2.80;;
20122;SDS011;10222;50.848;4.336;2023-07-16T05:08:19;5.73;;;2.87;;
20122;SDS011;10222;50.848;4.336;2023-07-16T05:10:45;6.63;;;3.10;;
20122;SDS011;10222;50.848;4.336;2023-07-16T05:13:11;11.07;;;3.73;;
20122;SDS011;10222;50.848;4.336;2023-07-16T05:15:37;7.43;;;3.30;;
20122;SDS011;10222;50.848;4.336;2023-07-16T05:18:04;4.30;;;3.07;;
20122;SDS011;10222;50.848;4.336;2023-07-16T05:20:30;7.70;;;3.27;;
20122;SDS011;10222;50.848;4.336;2023-07-16T05:22:56;6.47;;;3.57;;
20122;SDS011;10222;50.848;4.336;2023-07-16T05:25:22;10.73;;;3.57;;
20122;SDS011;10222;50.848;4.336;2023-07-16T05:27:48;6.43;;;3.50;;
20122;SDS011;10222;50.848;4.336;2023-07-16T05:30:14;11.07;;;3.57;;
20122;SDS011;10222;50.848;4.336;2023-07-16T05:32:40;7.87;;;3.50;;
20122;SDS011;10222;50.848;4.336;2023-07-16T05:35:07;7.20;;;3.40;;
20122;SDS011;10222;50.848;4.336;2023-07-16T05:37:33;6.63;;;3.00;;
20122;SDS011;10222;50.848;4.336;2023-07-16T05:39:59;8.20;;;3.37;;
20122;SDS011;10222;50.848;4.336;2023-07-16T05:42:25;9.20;;;3.43;;
20122;SDS011;10222;50.848;4.336;2023-07-16T05:44:51;7.50;;;4.03;;
20122;SDS011;10222;50.848;4.336;2023-07-16T05:47:17;7.07;;;3.40;;
20122;SDS011;10222;50.848;4.336;2023-07-16T05:49:43;13.07;;;4.43;;
20122;SDS011;10222;50.848;4.336;2023-07-16T05:52:09;9.60;;;4.60;;
20122;SDS011;10222;50.848;4.336;2023-07-16T05:54:35;11.07;;;3.77;;
20122;SDS011;10222;50.848;4.336;2023-07-16T05:57:01;8.60;;;3.37;;
20122;SDS011;10222;50.848;4.336;2023-07-16T05:59:27;9.43;;;3.53;;
20122;SDS011;10222;50.848;4.336;2023-07-16T06:01:53;7.87;;;3.63;;
20122;SDS011;10222;50.848;4.336;2023-07-16T06:04:20;8.00;;;3.47;;
20122;SDS011;10222;50.848;4.336;2023-07-16T06:06:46;7.90;;;3.93;;
20122;SDS011;10222;50.848;4.336;2023-07-16T06:09:12;10.10;;;3.77;;
20122;SDS011;10222;50.848;4.336;2023-07-16T06:11:38;8.80;;;3.63;;
20122;SDS011;10222;50.848;4.336;2023-07-16T06:14:04;6.77;;;3.47;;
20122;SDS011;10222;50.848;4.336;2023-07-16T06:16:30;8.23;;;3.70;;
20122;SDS011;10222;50.848;4.336;2023-07-16T06:18:56;9.03;;;3.53;;
20122;SDS011;10222;50.848;4.336;2023-07-16T06:21:22;9.40;;;3.83;;
20122;SDS011;10222;50.848;4.336;2023-07-16T06:23:48;8.53;;;3.63;;
20122;SDS011;10222;50.848;4.336;2023-07-16T06:26:14;7.77;;;3.47;;
20122;SDS011;10222;50.848;4.336;2023-07-16T06:28:40;9.57;;;3.53;;
20122;SDS011;10222;50.848;4.336;2023-07-16T06:31:06;9.93;;;3.97;;
20122;SDS011;10222;50.848;4.336;2023-07-16T06:33:32;7.50;;;3.83;;
20122;SDS011;10222;50.848;4.336;2023-07-16T06:35:58;6.53;;;3.23;;
20122;SDS011;10222;50.848;4.336;2023-07-16T06:38:24;7.27;;;3.93;;
20122;SDS011;10222;50.848;4.336;2023-07-16T06:40:50;6.67;;;3.93;;
20122;SDS011;10222;50.848;4.336;2023-07-16T06:43:17;9.93;;;4.33;;
20122;SDS011;10222;50.848;4.336;2023-07-16T06:45:43;8.60;;;4.13;;
20122;SDS011;10222;50.848;4.336;2023-07-16T06:48:09;8.50;;;3.97;;
20122;SDS011;10222;50.848;4.336;2023-07-16T06:50:35;11.33;;;4.20;;
20122;SDS011;10222;50.848;4.336;2023-07-16T06:53:01;7.77;;;4.00;;
20122;SDS011;10222;50.848;4.336;2023-07-16T06:55:27;8.53;;;3.70;;
20122;SDS011;10222;50.848;4.336;2023-07-16T06:57:53;11.70;;;3.47;;
20122;SDS011;10222;50.848;4.336;2023-07-16T07:00:19;8.67;;;4.07;;
20122;SDS011;10222;50.848;4.336;2023-07-16T07:02:45;9.93;;;3.97;;
20122;SDS011;10222;50.848;4.336;2023-07-16T07:05:11;11.50;;;3.90;;
20122;SDS011;10222;50.848;4.336;2023-07-16T07:07:37;8.60;;;3.50;;
20122;SDS011;10222;50.848;4.336;2023-07-16T07:10:03;6.10;;;3.27;;
20122;SDS011;10222;50.848;4.336;2023-07-16T07:12:29;6.53;;;3.70;;
20122;SDS011;10222;50.848;4.336;2023-07-16T07:15:01;9.13;;;4.00;;
20122;SDS011;10222;50.848;4.336;2023-07-16T07:17:27;7.53;;;3.63;;
20122;SDS011;10222;50.848;4.336;2023-07-16T07:19:53;9.47;;;4.00;;
20122;SDS011;10222;50.848;4.336;2023-07-16T07:22:19;8.77;;;3.77;;
20122;SDS011;10222;50.848;4.336;2023-07-16T07:24:45;5.87;;;3.47;;
20122;SDS011;10222;50.848;4.336;2023-07-16T07:27:11;13.27;;;3.57;;
20122;SDS011;10222;50.848;4.336;2023-07-16T07:29:36;11.10;;;3.97;;
20122;SDS011;10222;50.848;4.336;2023-07-16T07:32:03;7.07;;;3.90;;
20122;SDS011;10222;50.848;4.336;2023-07-16T07:34:29;11.73;;;3.73;;
20122;SDS011;10222;50.848;4.336;2023-07-16T07:36:54;10.93;;;4.07;;
20122;SDS011;10222;50.848;4.336;2023-07-16T07:39:20;8.50;;;3.43;;
20122;SDS011;10222;50.848;4.336;2023-07-16T07:41:47;8.40;;;3.50;;
20122;SDS011;10222;50.848;4.336;2023-07-16T07:44:13;11.00;;;4.17;;
20122;SDS011;10222;50.848;4.336;2023-07-16T07:46:40;8.37;;;3.70;;
20122;SDS011;10222;50.848;4.336;2023-07-16T07:49:06;8.30;;;3.40;;
20122;SDS011;10222;50.848;4.336;2023-07-16T07:51:32;11.63;;;4.13;;
20122;SDS011;10222;50.848;4.336;2023-07-16T07:53:58;6.30;;;3.03;;
20122;SDS011;10222;50.848;4.336;2023-07-16T07:56:24;8.57;;;3.67;;
20122;SDS011;10222;50.848;4.336;2023-07-16T07:58:50;10.80;;;3.93;;
20122;SDS011;10222;50.848;4.336;2023-07-16T08:01:16;8.93;;;3.93;;
20122;SDS011;10222;50.848;4.336;2023-07-16T08:03:42;8.50;;;3.70;;
20122;SDS011;10222;50.848;4.336;2023-07-16T08:06:08;8.23;;;3.60;;
20122;SDS011;10222;50.848;4.336;2023-07-16T08:08:36;7.90;;;3.50;;
20122;SDS011;10222;50.848;4.336;2023-07-16T08:11:02;10.23;;;4.17;;
20122;SDS011;10222;50.848;4.336;2023-07-16T08:13:28;10.00;;;3.83;;
20122;SDS011;10222;50.848;4.336;2023-07-16T08:15:54;5.50;;;3.43;;
20122;SDS011;10222;50.848;4.336;2023-07-16T08:18:20;7.20;;;3.70;;
20122;SDS011;10222;50.848;4.336;2023-07-16T08:20:46;8.10;;;3.60;;
20122;SDS011;10222;50.848;4.336;2023-07-16T08:23:12;9.80;;;3.57;;
20122;SDS011;10222;50.848;4.336;2023-07-16T08:25:38;11.13;;;3.40;;
20122;SDS011;10222;50.848;4.336;2023-07-16T08:28:05;9.33;;;3.43;;
20122;SDS011;10222;50.848;4.336;2023-07-16T08:30:32;9.13;;;3.57;;
20122;SDS011;10222;50.848;4.336;2023-07-16T08:32:59;6.93;;;3.43;;
20122;SDS011;10222;50.848;4.336;2023-07-16T08:35:24;9.07;;;3.40;;
20122;SDS011;10222;50.848;4.336;2023-07-16T08:37:50;5.70;;;2.83;;
20122;SDS011;10222;50.848;4.336;2023-07-16T08:40:16;11.17;;;3.23;;
20122;SDS011;10222;50.848;4.336;2023-07-16T08:42:44;7.63;;;3.60;;
20122;SDS011;10222;50.848;4.336;2023-07-16T08:45:11;4.97;;;3.03;;
20122;SDS011;10222;50.848;4.336;2023-07-16T08:47:37;9.10;;;3.53;;
20122;SDS011;10222;50.848;4.336;2023-07-16T08:50:03;8.93;;;3.13;;
20122;SDS011;10222;50.848;4.336;2023-07-16T08:52:29;8.20;;;3.20;;
20122;SDS011;10222;50.848;4.336;2023-07-16T08:54:56;7.13;;;2.87;;
20122;SDS011;10222;50.848;4.336;2023-07-16T08:57:22;8.83;;;3.43;;
20122;SDS011;10222;50.848;4.336;2023-07-16T08:59:48;6.73;;;3.03;;
20122;SDS011;10222;50.848;4.336;2023-07-16T09:02:18;6.63;;;3.07;;
20122;SDS011;10222;50.848;4.336;2023-07-16T09:04:47;8.20;;;3.17;;
20122;SDS011;10222;50.848;4.336;2023-07-16T09:07:14;5.53;;;2.43;;
20122;SDS011;10222;50.848;4.336;2023-07-16T09:09:40;6.43;;;2.83;;
20122;SDS011;10222;50.848;4.336;2023-07-16T09:12:06;7.13;;;2.80;;
20122;SDS011;10222;50.848;4.336;2023-07-16T09:14:32;4.83;;;2.63;;
20122;SDS011;10222;50.848;4.336;2023-07-16T09:16:58;5.77;;;3.00;;
20122;SDS011;10222;50.848;4.336;2023-07-16T09:19:25;6.50;;;3.43;;
20122;SDS011;10222;50.848;4.336;2023-07-16T09:21:51;4.77;;;2.63;;
20122;SDS011;10222;50.848;4.336;2023-07-16T09:24:18;7.27;;;2.57;;
20122;SDS011;10222;50.848;4.336;2023-07-16T09:26:51;7.40;;;2.90;;
20122;SDS011;10222;50.848;4.336;2023-07-16T09:29:17;4.75;;;2.58;;
20122;SDS011;10222;50.848;4.336;2023-07-16T09:31:59;7.60;;;3.17;;
20122;SDS011;10222;50.848;4.336;2023-07-16T09:34:28;6.50;;;2.87;;
20122;SDS011;10222;50.848;4.336;2023-07-16T09:36:54;6.00;;;2.70;;
20122;SDS011;10222;50.848;4.336;2023-07-16T09:39:20;6.27;;;2.90;;
20122;SDS011;10222;50.848;4.336;2023-07-16T09:41:50;5.03;;;2.80;;
20122;SDS011;10222;50.848;4.336;2023-07-16T09:44:16;6.80;;;2.70;;
20122;SDS011;10222;50.848;4.336;2023-07-16T09:46:44;8.43;;;3.03;;
20122;SDS011;10222;50.848;4.336;2023-07-16T09:49:10;4.97;;;2.20;;
20122;SDS011;10222;50.848;4.336;2023-07-16T09:51:37;5.00;;;3.00;;
20122;SDS011;10222;50.848;4.336;2023-07-16T09:54:04;6.30;;;2.70;;
20122;SDS011;10222;50.848;4.336;2023-07-16T09:56:37;7.57;;;3.43;;
20122;SDS011;10222;50.848;4.336;2023-07-16T09:59:09;7.28;;;2.85;;
20122;SDS011;10222;50.848;4.336;2023-07-16T10:01:37;6.43;;;3.13;;
20122;SDS011;10222;50.848;4.336;2023-07-16T10:04:11;5.57;;;2.70;;
20122;SDS011;10222;50.848;4.336;2023-07-16T10:06:47;6.53;;;2.60;;
20122;SDS011;10222;50.848;4.336;2023-07-16T10:09:13;8.02;;;2.50;;
20122;SDS011;10222;50.848;4.336;2023-07-16T10:11:40;8.77;;;2.97;;
20122;SDS011;10222;50.848;4.336;2023-07-16T10:14:07;3.90;;;2.50;;
20122;SDS011;10222;50.848;4.336;2023-07-16T10:16:37;7.72;;;2.70;;
20122;SDS011;10222;50.848;4.336;2023-07-16T10:19:04;7.23;;;2.93;;
20122;SDS011;10222;50.848;4.336;2023-07-16T10:21:36;5.43;;;2.87;;
20122;SDS011;10222;50.848;4.336;2023-07-16T10:24:05;6.60;;;2.50;;
20122;SDS011;10222;50.848;4.336;2023-07-16T10:26:31;8.27;;;3.20;;
20122;SDS011;10222;50.848;4.336;2023-07-16T10:28:57;8.07;;;2.83;;
20122;SDS011;10222;50.848;4.336;2023-07-16T10:31:23;6.05;;;2.88;;
20122;SDS011;10222;50.848;4.336;2023-07-16T10:33:58;6.70;;;2.37;;
20122;SDS011;10222;50.848;4.336;2023-07-16T10:36:24;6.80;;;3.03;;
20122;SDS011;10222;50.848;4.336;2023-07-16T10:38:50;9.02;;;3.17;;
20122;SDS011;10222;50.848;4.336;2023-07-16T10:41:17;6.95;;;2.47;;
20122;SDS011;10222;50.848;4.336;2023-07-16T10:43:43;6.80;;;2.72;;
20122;SDS011;10222;50.848;4.336;2023-07-16T10:46:09;6.73;;;3.07;;
20122;SDS011;10222;50.848;4.336;2023-07-16T10:48:35;4.13;;;2.35;;
20122;SDS011;10222;50.848;4.336;2023-07-16T10:51:01;6.07;;;2.60;;
20122;SDS011;10222;50.848;4.336;2023-07-16T10:53:27;8.00;;;2.45;;
20122;SDS011;10222;50.848;4.336;2023-07-16T10:55:54;6.80;;;2.53;;
20122;SDS011;10222;50.848;4.336;2023-07-16T10:58:20;3.80;;;2.30;;
20122;SDS011;10222;50.848;4.336;2023-07-16T11:00:46;9.00;;;3.05;;
20122;SDS011;10222;50.848;4.336;2023-07-16T11:03:16;8.00;;;2.83;;
20122;SDS011;10222;50.848;4.336;2023-07-16T11:05:44;4.63;;;2.13;;
20122;SDS011;10222;50.848;4.336;2023-07-16T11:08:11;8.13;;;2.87;;
20122;SDS011;10222;50.848;4.336;2023-07-16T11:10:52;6.30;;;2.67;;
20122;SDS011;10222;50.848;4.336;2023-07-16T11:13:18;6.05;;;2.70;;
20122;SDS011;10222;50.848;4.336;2023-07-16T11:15:44;7.87;;;2.77;;
20122;SDS011;10222;50.848;4.336;2023-07-16T11:18:10;7.37;;;2.80;;
20122;SDS011;10222;50.848;4.336;2023-07-16T11:20:36;5.03;;;2.40;;
20122;SDS011;10222;50.848;4.336;2023-07-16T11:23:03;7.67;;;2.50;;
20122;SDS011;10222;50.848;4.336;2023-07-16T11:25:30;9.83;;;3.17;;
20122;SDS011;10222;50.848;4.336;2023-07-16T11:27:56;7.83;;;2.60;;
20122;SDS011;10222;50.848;4.336;2023-07-16T11:30:22;7.73;;;2.90;;
20122;SDS011;10222;50.848;4.336;2023-07-16T11:32:51;7.43;;;3.00;;
20122;SDS011;10222;50.848;4.336;2023-07-16T11:35:18;7.83;;;3.10;;
20122;SDS011;10222;50.848;4.336;2023-07-16T11:37:44;7.43;;;2.47;;
20122;SDS011;10222;50.848;4.336;2023-07-16T11:40:11;8.07;;;3.20;;
20122;SDS011;10222;50.848;4.336;2023-07-16T11:42:38;6.03;;;2.88;;
20122;SDS011;10222;50.848;4.336;2023-07-16T11:45:04;4.17;;;2.40;;
20122;SDS011;10222;50.848;4.336;2023-07-16T11:47:31;6.32;;;2.58;;
20122;SDS011;10222;50.848;4.336;2023-07-16T11:49:57;5.73;;;2.70;;
20122;SDS011;10222;50.848;4.336;2023-07-16T11:52:28;5.90;;;2.58;;
20122;SDS011;10222;50.848;4.336;2023-07-16T11:54:57;5.40;;;2.50;;
20122;SDS011;10222;50.848;4.336;2023-07-16T11:57:28;8.00;;;2.97;;
20122;SDS011;10222;50.848;4.336;2023-07-16T11:59:54;7.77;;;2.77;;
20122;SDS011;10222;50.848;4.336;2023-07-16T12:02:20;5.65;;;2.20;;
20122;SDS011;10222;50.848;4.336;2023-07-16T12:04:47;8.35;;;2.80;;
20122;SDS011;10222;50.848;4.336;2023-07-16T12:07:13;5.97;;;2.60;;
20122;SDS011;10222;50.848;4.336;2023-07-16T12:09:39;6.13;;;1.98;;
20122;SDS011;10222;50.848;4.336;2023-07-16T12:12:05;8.25;;;2.58;;
20122;SDS011;10222;50.848;4.336;2023-07-16T12:14:31;8.38;;;2.72;;
20122;SDS011;10222;50.848;4.336;2023-07-16T12:16:58;5.18;;;2.20;;
20122;SDS011;10222;50.848;4.336;2023-07-16T12:19:24;9.90;;;3.15;;
20122;SDS011;10222;50.848;4.336;2023-07-16T12:21:50;5.45;;;2.20;;
20122;SDS011;10222;50.848;4.336;2023-07-16T12:24:16;6.20;;;2.80;;
20122;SDS011;10222;50.848;4.336;2023-07-16T12:26:43;4.47;;;2.00;;
20122;SDS011;10222;50.848;4.336;2023-07-16T12:29:09;3.95;;;2.42;;
20122;SDS011;10222;50.848;4.336;2023-07-16T12:31:35;5.43;;;2.10;;
20122;SDS011;10222;50.848;4.336;2023-07-16T12:34:01;4.13;;;1.83;;
20122;SDS011;10222;50.848;4.336;2023-07-16T12:36:28;4.00;;;1.95;;
20122;SDS011;10222;50.848;4.336;2023-07-16T12:38:54;2.92;;;1.52;;
20122;SDS011;10222;50.848;4.336;2023-07-16T12:41:20;5.43;;;2.05;;
20122;SDS011;10222;50.848;4.336;2023-07-16T12:43:46;3.33;;;1.70;;
20122;SDS011;10222;50.848;4.336;2023-07-16T12:46:12;3.13;;;1.60;;
20122;SDS011;10222;50.848;4.336;2023-07-16T12:48:38;1.77;;;1.25;;
20122;SDS011;10222;50.848;4.336;2023-07-16T12:51:04;3.35;;;1.60;;
20122;SDS011;10222;50.848;4.336;2023-07-16T12:53:30;5.05;;;1.65;;
20122;SDS011;10222;50.848;4.336;2023-07-16T12:55:56;4.22;;;1.98;;
20122;SDS011;10222;50.848;4.336;2023-07-16T12:58:22;2.70;;;1.65;;
20122;SDS011;10222;50.848;4.336;2023-07-16T13:00:48;2.42;;;1.48;;
20122;SDS011;10222;50.848;4.336;2023-07-16T13:03:14;4.07;;;1.63;;
20122;SDS011;10222;50.848;4.336;2023-07-16T13:05:41;5.32;;;1.77;;
20122;SDS011;10222;50.848;4.336;2023-07-16T13:08:08;3.72;;;1.77;;
20122;SDS011;10222;50.848;4.336;2023-07-16T13:10:34;5.45;;;1.90;;
20122;SDS011;10222;50.848;4.336;2023-07-16T13:13:00;6.60;;;2.08;;
20122;SDS011;10222;50.848;4.336;2023-07-16T13:15:28;3.95;;;1.50;;
20122;SDS011;10222;50.848;4.336;2023-07-16T13:17:54;4.05;;;1.38;;
20122;SDS011;10222;50.848;4.336;2023-07-16T13:20:20;6.13;;;1.70;;
20122;SDS011;10222;50.848;4.336;2023-07-16T13:22:47;4.85;;;1.90;;
20122;SDS011;10222;50.848;4.336;2023-07-16T13:25:13;3.75;;;1.70;;
20122;SDS011;10222;50.848;4.336;2023-07-16T13:27:39;2.80;;;1.50;;
20122;SDS011;10222;50.848;4.336;2023-07-16T13:30:06;3.15;;;1.48;;
20122;SDS011;10222;50.848;4.336;2023-07-16T13:32:32;2.53;;;1.30;;
20122;SDS011;10222;50.848;4.336;2023-07-16T13:34:58;3.20;;;1.20;;
20122;SDS011;10222;50.848;4.336;2023-07-16T13:37:24;3.95;;;1.20;;
20122;SDS011;10222;50.848;4.336;2023-07-16T13:39:50;1.42;;;0.88;;
20122;SDS011;10222;50.848;4.336;2023-07-16T13:42:16;2.35;;;1.15;;
20122;SDS011;10222;50.848;4.336;2023-07-16T13:44:42;2.92;;;1.42;;
20122;SDS011;10222;50.848;4.336;2023-07-16T13:47:08;3.42;;;1.48;;
20122;SDS011;10222;50.848;4.336;2023-07-16T13:49:34;3.92;;;1.30;;
20122;SDS011;10222;50.848;4.336;2023-07-16T13:52:00;3.13;;;1.10;;
20122;SDS011;10222;50.848;4.336;2023-07-16T13:54:26;3.55;;;1.20;;
20122;SDS011;10222;50.848;4.336;2023-07-16T13:56:52;2.72;;;1.05;;
20122;SDS011;10222;50.848;4.336;2023-07-16T13:59:18;2.95;;;1.05;;
20122;SDS011;10222;50.848;4.336;2023-07-16T14:01:44;2.25;;;1.15;;
20122;SDS011;10222;50.848;4.336;2023-07-16T14:04:12;2.47;;;1.50;;
20122;SDS011;10222;50.848;4.336;2023-07-16T14:06:38;4.50;;;1.83;;
20122;SDS011;10222;50.848;4.336;2023-07-16T14:09:04;3.83;;;1.63;;
20122;SDS011;10222;50.848;4.336;2023-07-16T14:11:30;5.07;;;2.03;;
20122;SDS011;10222;50.848;4.336;2023-07-16T14:13:56;4.70;;;1.55;;
20122;SDS011;10222;50.848;4.336;2023-07-16T14:16:22;4.90;;;2.05;;
20122;SDS011;10222;50.848;4.336;2023-07-16T14:18:49;4.65;;;1.70;;
20122;SDS011;10222;50.848;4.336;2023-07-16T14:21:15;4.28;;;1.65;;
20122;SDS011;10222;50.848;4.336;2023-07-16T14:23:41;6.50;;;1.95;;
20122;SDS011;10222;50.848;4.336;2023-07-16T14:26:07;3.50;;;1.67;;
20122;SDS011;10222;50.848;4.336;2023-07-16T14:28:33;6.30;;;2.10;;
20122;SDS011;10222;50.848;4.336;2023-07-16T14:30:59;4.05;;;1.90;;
20122;SDS011;10222;50.848;4.336;2023-07-16T14:33:25;2.55;;;1.75;;
20122;SDS011;10222;50.848;4.336;2023-07-16T14:35:52;2.67;;;1.10;;
20122;SDS011;10222;50.848;4.336;2023-07-16T14:38:18;2.33;;;1.23;;
20122;SDS011;10222;50.848;4.336;2023-07-16T14:40:44;2.05;;;1.08;;
20122;SDS011;10222;50.848;4.336;2023-07-16T14:43:11;2.80;;;0.80;;
20122;SDS011;10222;50.848;4.336;2023-07-16T14:45:37;2.88;;;0.68;;
20122;SDS011;10222;50.848;4.336;2023-07-16T14:48:05;6.93;;;1.05;;
20122;SDS011;10222;50.848;4.336;2023-07-16T14:50:31;1.13;;;0.70;;